sensor_id;sensor_type;location;lat;lon;timestamp;pressure;altitude;pressure_sealevel;temperature;humidity
16100;BME280;8154;50.830;12.082;2023-02-17T00:04:55;99912.69;;;25.04;30.58
16100;BME280;8154;50.830;12.082;2023-02-17T00:07:21;99905.66;;;25.03;30.49
16100;BME280;8154;50.830;12.082;2023-02-17T00:09:47;99899.09;;;25.06;30.68
16100;BME280;8154;50.830;12.082;2023-02-17T00:12:13;99895.59;;;25.05;30.83
16100;BME280;8154;50.830;12.082;2023-02-17T00:14:39;99896.63;;;25.04;30.76
16100;BME280;8154;50.830;12.082;2023-02-17T00:17:06;99885.72;;;25.06;30.76
16100;BME280;8154;50.830;12.082;2023-02-17T00:19:32;99878.72;;;25.05;30.42
16100;BME280;8154;50.830;12.082;2023-02-17T00:22:00;99889.59;;;25.03;30.60
16100;BME280;8154;50.830;12.082;2023-02-17T00:24:30;99885.94;;;25.04;30.86
16100;BME280;8154;50.830;12.082;2023-02-17T00:26:57;99877.91;;;25.04;30.77
16100;BME280;8154;50.830;12.082;2023-02-17T00:29:23;99882.22;;;25.05;30.77
16100;BME280;8154;50.830;12.082;2023-02-17T00:31:51;99864.94;;;25.01;30.63
16100;BME280;8154;50.830;12.082;2023-02-17T00:34:18;99873.56;;;25.03;30.74
16100;BME280;8154;50.830;12.082;2023-02-17T00:36:45;99875.44;;;25.03;30.77
16100;BME280;8154;50.830;12.082;2023-02-17T00:39:12;99872.94;;;25.01;30.49
16100;BME280;8154;50.830;12.082;2023-02-17T00:41:39;99864.94;;;25.01;30.65
16100;BME280;8154;50.830;12.082;2023-02-17T00:44:05;99861.16;;;24.96;30.52
16100;BME280;8154;50.830;12.082;2023-02-17T00:46:31;99869.25;;;25.02;30.90
16100;BME280;8154;50.830;12.082;2023-02-17T00:48:58;99870.06;;;25.03;30.77
16100;BME280;8154;50.830;12.082;2023-02-17T00:51:24;99863.69;;;25.04;30.76
16100;BME280;8154;50.830;12.082;2023-02-17T00:53:51;99867.22;;;25.04;30.52
16100;BME280;8154;50.830;12.082;2023-02-17T00:56:17;99864.53;;;25.04;30.80
16100;BME280;8154;50.830;12.082;2023-02-17T00:58:43;99865.53;;;25.03;30.65
16100;BME280;8154;50.830;12.082;2023-02-17T01:01:11;99862.88;;;25.03;30.61
16100;BME280;8154;50.830;12.082;2023-02-17T01:03:38;99866.56;;;25.02;30.85
16100;BME280;8154;50.830;12.082;2023-02-17T01:06:07;99863.69;;;25.04;30.46
16100;BME280;8154;50.830;12.082;2023-02-17T01:08:35;99874.59;;;25.02;30.65
16100;BME280;8154;50.830;12.082;2023-02-17T01:11:02;99872.75;;;25.03;30.52
16100;BME280;8154;50.830;12.082;2023-02-17T01:13:28;99873.34;;;24.98;30.62
16100;BME280;8154;50.830;12.082;2023-02-17T01:15:54;99862.06;;;25.03;30.50
16100;BME280;8154;50.830;12.082;2023-02-17T01:18:22;99851.56;;;25.01;30.63
16100;BME280;8154;50.830;12.082;2023-02-17T01:20:49;99850.91;;;24.99;30.62
16100;BME280;8154;50.830;12.082;2023-02-17T01:23:16;99847.22;;;25.00;30.74
16100;BME280;8154;50.830;12.082;2023-02-17T01:25:44;99844.53;;;25.00;30.84
16100;BME280;8154;50.830;12.082;2023-02-17T01:28:18;99843.53;;;25.01;30.73
16100;BME280;8154;50.830;12.082;2023-02-17T01:30:45;99855.22;;;25.00;30.71
16100;BME280;8154;50.830;12.082;2023-02-17T01:33:11;99840.84;;;25.01;30.61
16100;BME280;8154;50.830;12.082;2023-02-17T01:35:37;99835.50;;;25.01;30.72
16100;BME280;8154;50.830;12.082;2023-02-17T01:38:05;99836.50;;;25.00;30.83
16100;BME280;8154;50.830;12.082;2023-02-17T01:40:32;99837.53;;;24.99;30.52
16100;BME280;8154;50.830;12.082;2023-02-17T01:42:59;99834.88;;;24.99;30.76
16100;BME280;8154;50.830;12.082;2023-02-17T01:45:43;99836.72;;;24.99;30.93
16100;BME280;8154;50.830;12.082;2023-02-17T01:48:15;99832.19;;;24.99;30.73
16100;BME280;8154;50.830;12.082;2023-02-17T01:50:47;99837.34;;;25.01;30.87
16100;BME280;8154;50.830;12.082;2023-02-17T01:53:20;99838.38;;;25.00;30.50
16100;BME280;8154;50.830;12.082;2023-02-17T01:55:48;99836.31;;;25.02;30.52
16100;BME280;8154;50.830;12.082;2023-02-17T01:58:18;99835.50;;;25.01;30.82
16100;BME280;8154;50.830;12.082;2023-02-17T02:00:46;99832.00;;;25.01;30.47
16100;BME280;8154;50.830;12.082;2023-02-17T02:03:14;99826.84;;;24.99;30.51
16100;BME280;8154;50.830;12.082;2023-02-17T02:05:41;99821.50;;;24.99;30.52
16100;BME280;8154;50.830;12.082;2023-02-17T02:08:09;99818.81;;;24.99;30.87
16100;BME280;8154;50.830;12.082;2023-02-17T02:10:37;99813.47;;;24.99;30.75
16100;BME280;8154;50.830;12.082;2023-02-17T02:13:05;99799.47;;;24.97;30.46
16100;BME280;8154;50.830;12.082;2023-02-17T02:16:00;99793.72;;;25.00;30.67
16100;BME280;8154;50.830;12.082;2023-02-17T02:18:35;99793.72;;;25.00;30.41
16100;BME280;8154;50.830;12.082;2023-02-17T02:21:39;99800.09;;;24.99;30.46
16100;BME280;8154;50.830;12.082;2023-02-17T02:35:24;99785.09;;;24.98;30.82
16100;BME280;8154;50.830;12.082;2023-02-17T02:38:01;99793.72;;;25.00;30.50
16100;BME280;8154;50.830;12.082;2023-02-17T02:40:33;99799.47;;;24.97;30.74
16100;BME280;8154;50.830;12.082;2023-02-17T02:43:01;99794.97;;;24.98;30.40
16100;BME280;8154;50.830;12.082;2023-02-17T02:45:29;99794.31;;;24.96;30.46
16100;BME280;8154;50.830;12.082;2023-02-17T02:47:57;99793.31;;;24.97;30.74
16100;BME280;8154;50.830;12.082;2023-02-17T02:56:16;99785.09;;;24.98;30.52
16100;BME280;8154;50.830;12.082;2023-02-17T03:02:06;99779.94;;;24.97;30.54
16100;BME280;8154;50.830;12.082;2023-02-17T04:06:01;99702.75;;;24.94;30.80
16100;BME280;8154;50.830;12.082;2023-02-17T04:08:27;99709.16;;;24.93;30.67
16100;BME280;8154;50.830;12.082;2023-02-17T04:10:59;99708.94;;;24.94;30.34
16100;BME280;8154;50.830;12.082;2023-02-17T04:13:26;99714.28;;;24.94;30.78
16100;BME280;8154;50.830;12.082;2023-02-17T04:15:54;99712.66;;;24.93;30.70
16100;BME280;8154;50.830;12.082;2023-02-17T04:18:21;99714.50;;;24.93;30.67
16100;BME280;8154;50.830;12.082;2023-02-17T04:20:49;99718.63;;;24.95;30.72
16100;BME280;8154;50.830;12.082;2023-02-17T04:23:15;99715.13;;;24.95;30.62
16100;BME280;8154;50.830;12.082;2023-02-17T04:25:43;99718.63;;;24.95;30.65
16100;BME280;8154;50.830;12.082;2023-02-17T04:28:10;99713.28;;;24.95;30.71
16100;BME280;8154;50.830;12.082;2023-02-17T04:30:37;99710.63;;;24.95;30.76
16100;BME280;8154;50.830;12.082;2023-02-17T04:33:04;99715.97;;;24.95;30.53
16100;BME280;8154;50.830;12.082;2023-02-17T04:35:31;99708.75;;;24.96;30.69
16100;BME280;8154;50.830;12.082;2023-02-17T04:37:57;99701.56;;;24.96;30.82
16100;BME280;8154;50.830;12.082;2023-02-17T04:40:24;99712.25;;;24.96;30.73
16100;BME280;8154;50.830;12.082;2023-02-17T04:42:51;99704.44;;;24.95;30.55
16100;BME280;8154;50.830;12.082;2023-02-17T04:45:18;99705.44;;;24.94;30.75
16100;BME280;8154;50.830;12.082;2023-02-17T04:47:46;99711.00;;;24.92;30.59
16100;BME280;8154;50.830;12.082;2023-02-17T04:50:12;99705.03;;;24.90;30.60
16100;BME280;8154;50.830;12.082;2023-02-17T04:52:38;99705.63;;;24.92;30.52
16100;BME280;8154;50.830;12.082;2023-02-17T04:55:05;99702.38;;;24.90;30.57
16100;BME280;8154;50.830;12.082;2023-02-17T04:57:33;99711.00;;;24.92;30.73
16100;BME280;8154;50.830;12.082;2023-02-17T05:00:00;99719.66;;;24.94;30.64
16100;BME280;8154;50.830;12.082;2023-02-17T05:02:28;99710.00;;;24.93;30.60
16100;BME280;8154;50.830;12.082;2023-02-17T05:04:55;99708.94;;;24.94;30.50
16100;BME280;8154;50.830;12.082;2023-02-17T09:07:54;99599.16;;;25.02;30.64
16100;BME280;8154;50.830;12.082;2023-02-17T09:10:20;99589.28;;;25.03;30.68
16100;BME280;8154;50.830;12.082;2023-02-17T09:12:46;99586.81;;;25.01;30.42
16100;BME280;8154;50.830;12.082;2023-02-17T09:15:12;99588.44;;;25.02;30.46
16100;BME280;8154;50.830;12.082;2023-02-17T09:17:40;99588.44;;;25.02;30.52
16100;BME280;8154;50.830;12.082;2023-02-17T09:20:08;99587.63;;;25.02;30.52
16100;BME280;8154;50.830;12.082;2023-02-17T09:22:35;99602.66;;;25.03;30.79
16100;BME280;8154;50.830;12.082;2023-02-17T09:25:02;99597.91;;;25.05;30.73
16100;BME280;8154;50.830;12.082;2023-02-17T09:27:31;99597.91;;;25.05;30.54
16100;BME280;8154;50.830;12.082;2023-02-17T09:29:57;99590.91;;;25.04;30.58
16100;BME280;8154;50.830;12.082;2023-02-17T09:32:23;99585.38;;;25.05;30.41
16100;BME280;8154;50.830;12.082;2023-02-17T09:34:57;99601.63;;;25.04;30.64
16100;BME280;8154;50.830;12.082;2023-02-17T09:37:23;99608.41;;;25.06;30.45
16100;BME280;8154;50.830;12.082;2023-02-17T09:39:49;99597.09;;;25.04;30.73
16100;BME280;8154;50.830;12.082;2023-02-17T09:42:27;99591.75;;;25.04;30.71
16100;BME280;8154;50.830;12.082;2023-02-17T09:45:21;99592.34;;;25.06;30.64
16100;BME280;8154;50.830;12.082;2023-02-17T09:47:54;99594.03;;;25.07;30.48
16100;BME280;8154;50.830;12.082;2023-02-17T09:51:16;99589.69;;;25.06;30.80
16100;BME280;8154;50.830;12.082;2023-02-17T09:53:38;99578.97;;;25.06;30.74
16100;BME280;8154;50.830;12.082;2023-02-17T09:56:13;99569.13;;;25.07;30.70
16100;BME280;8154;50.830;12.082;2023-02-17T09:58:52;99563.78;;;25.07;30.45
16100;BME280;8154;50.830;12.082;2023-02-17T10:01:27;99576.31;;;25.06;30.61
16100;BME280;8154;50.830;12.082;2023-02-17T10:04:06;99564.59;;;25.07;30.45
16100;BME280;8154;50.830;12.082;2023-02-17T10:06:37;99559.25;;;25.07;30.48
16100;BME280;8154;50.830;12.082;2023-02-17T10:09:27;99547.53;;;25.08;30.69
16100;BME280;8154;50.830;12.082;2023-02-17T10:12:09;99550.19;;;25.08;30.55
16100;BME280;8154;50.830;12.082;2023-02-17T10:14:44;99551.81;;;25.09;30.35
16100;BME280;8154;50.830;12.082;2023-02-17T10:17:22;99556.38;;;25.09;30.75
16100;BME280;8154;50.830;12.082;2023-02-17T10:22:35;99562.94;;;25.06;30.60
16100;BME280;8154;50.830;12.082;2023-02-17T10:25:15;99556.38;;;25.09;30.47
16100;BME280;8154;50.830;12.082;2023-02-17T10:27:45;99554.50;;;25.09;30.39
16100;BME280;8154;50.830;12.082;2023-02-17T10:30:32;99546.47;;;25.09;30.63
16100;BME280;8154;50.830;12.082;2023-02-17T10:33:20;99551.81;;;25.09;30.66
16100;BME280;8154;50.830;12.082;2023-02-17T10:35:57;99544.63;;;25.10;30.70
16100;BME280;8154;50.830;12.082;2023-02-17T10:38:44;99531.91;;;25.12;30.68
16100;BME280;8154;50.830;12.082;2023-02-17T10:41:19;99521.41;;;25.10;30.62
16100;BME280;8154;50.830;12.082;2023-02-17T10:43:48;99513.38;;;25.10;30.43
16100;BME280;8154;50.830;12.082;2023-02-17T10:46:16;99505.34;;;25.10;30.32
16100;BME280;8154;50.830;12.082;2023-02-17T10:48:49;99515.84;;;25.12;30.22
16100;BME280;8154;50.830;12.082;2023-02-17T10:51:22;99512.34;;;25.11;30.54
16100;BME280;8154;50.830;12.082;2023-02-17T10:54:04;99508.84;;;25.11;30.40
16100;BME280;8154;50.830;12.082;2023-02-17T10:56:39;99511.50;;;25.11;30.40
16100;BME280;8154;50.830;12.082;2023-02-17T10:59:16;99523.88;;;25.12;30.48
16100;BME280;8154;50.830;12.082;2023-02-17T11:01:47;99523.03;;;25.11;30.34
16100;BME280;8154;50.830;12.082;2023-02-17T11:04:17;99516.06;;;25.10;30.45
16100;BME280;8154;50.830;12.082;2023-02-17T11:06:47;99513.19;;;25.12;30.44
16100;BME280;8154;50.830;12.082;2023-02-17T11:12:14;99505.78;;;25.14;30.61
16100;BME280;8154;50.830;12.082;2023-02-17T11:14:49;99495.88;;;25.14;30.58
16100;BME280;8154;50.830;12.082;2023-02-17T11:17:37;99481.50;;;25.15;30.57
16100;BME280;8154;50.830;12.082;2023-02-17T12:26:43;99431.69;;;25.14;30.74
16100;BME280;8154;50.830;12.082;2023-02-17T12:29:17;99432.53;;;25.15;30.74
16100;BME280;8154;50.830;12.082;2023-02-17T12:32:23;99421.63;;;25.16;30.72
16100;BME280;8154;50.830;12.082;2023-02-17T12:38:16;99400.84;;;25.18;30.68
16100;BME280;8154;50.830;12.082;2023-02-17T12:40:50;99390.34;;;25.17;30.63
16100;BME280;8154;50.830;12.082;2023-02-17T12:43:24;99390.34;;;25.17;30.71
16100;BME280;8154;50.830;12.082;2023-02-17T12:45:54;99382.34;;;25.17;30.74
16100;BME280;8154;50.830;12.082;2023-02-17T12:58:53;99388.47;;;25.17;30.46
16100;BME280;8154;50.830;12.082;2023-02-17T13:01:25;99383.75;;;25.19;30.81
16100;BME280;8154;50.830;12.082;2023-02-17T13:03:58;99378.63;;;25.18;30.80
16100;BME280;8154;50.830;12.082;2023-02-17T13:06:39;99373.25;;;25.18;30.81
16100;BME280;8154;50.830;12.082;2023-02-17T13:11:44;99360.94;;;25.17;30.72
16100;BME280;8154;50.830;12.082;2023-02-17T13:14:38;99351.03;;;25.17;30.78
16100;BME280;8154;50.830;12.082;2023-02-17T13:17:05;99354.34;;;25.19;30.56
16100;BME280;8154;50.830;12.082;2023-02-17T13:19:33;99361.72;;;25.17;30.54
16100;BME280;8154;50.830;12.082;2023-02-17T13:22:01;99369.56;;;25.19;30.71
16100;BME280;8154;50.830;12.082;2023-02-17T13:24:35;99361.72;;;25.17;30.54
16100;BME280;8154;50.830;12.082;2023-02-17T13:29:36;99364.41;;;25.17;30.67
16100;BME280;8154;50.830;12.082;2023-02-17T13:32:06;99375.72;;;25.19;30.58
16100;BME280;8154;50.830;12.082;2023-02-17T13:34:36;99369.56;;;25.19;30.50
16100;BME280;8154;50.830;12.082;2023-02-17T13:37:24;99364.81;;;25.21;30.67
16100;BME280;8154;50.830;12.082;2023-02-17T13:39:52;99360.72;;;25.18;30.66
16100;BME280;8154;50.830;12.082;2023-02-17T13:42:34;99360.53;;;25.20;30.75
16100;BME280;8154;50.830;12.082;2023-02-17T13:45:09;99355.97;;;25.20;30.44
16100;BME280;8154;50.830;12.082;2023-02-17T13:47:37;99357.00;;;25.19;30.40
16100;BME280;8154;50.830;12.082;2023-02-17T13:50:20;99361.31;;;25.20;30.75
16100;BME280;8154;50.830;12.082;2023-02-17T13:52:51;99352.50;;;25.20;30.39
16100;BME280;8154;50.830;12.082;2023-02-17T13:55:18;99362.16;;;25.21;30.56
16100;BME280;8154;50.830;12.082;2023-02-17T13:57:54;99367.50;;;25.21;30.53
16100;BME280;8154;50.830;12.082;2023-02-17T14:00:24;99364.00;;;25.20;30.44
16100;BME280;8154;50.830;12.082;2023-02-17T14:02:55;99362.16;;;25.21;30.64
16100;BME280;8154;50.830;12.082;2023-02-17T14:05:34;99361.31;;;25.20;30.39
16100;BME280;8154;50.830;12.082;2023-02-17T14:08:46;99353.50;;;25.19;30.68
16100;BME280;8154;50.830;12.082;2023-02-17T14:10:55;99352.28;;;25.21;30.80
16100;BME280;8154;50.830;12.082;2023-02-17T14:13:23;99336.88;;;25.17;30.62
16100;BME280;8154;50.830;12.082;2023-02-17T14:15:56;99341.78;;;25.20;30.67
16100;BME280;8154;50.830;12.082;2023-02-17T14:18:34;99332.94;;;25.19;30.71
16100;BME280;8154;50.830;12.082;2023-02-17T14:21:11;99330.06;;;25.21;30.35
16100;BME280;8154;50.830;12.082;2023-02-17T15:25:00;99379.25;;;25.20;30.49
16100;BME280;8154;50.830;12.082;2023-02-17T15:27:27;99381.09;;;25.19;30.48
16100;BME280;8154;50.830;12.082;2023-02-17T15:29:54;99374.69;;;25.20;30.79
16100;BME280;8154;50.830;12.082;2023-02-17T15:32:23;99389.72;;;25.21;30.50
16100;BME280;8154;50.830;12.082;2023-02-17T15:34:49;99384.38;;;25.21;30.53
16100;BME280;8154;50.830;12.082;2023-02-17T15:37:15;99362.16;;;25.21;30.43
16100;BME280;8154;50.830;12.082;2023-02-17T15:39:42;99386.84;;;25.23;30.53
16100;BME280;8154;50.830;12.082;2023-02-17T15:42:12;99375.09;;;25.24;30.82
16100;BME280;8154;50.830;12.082;2023-02-17T15:44:43;99354.75;;;25.23;30.55
16100;BME280;8154;50.830;12.082;2023-02-17T15:47:15;99347.53;;;25.23;30.48
16100;BME280;8154;50.830;12.082;2023-02-17T15:49:43;99351.88;;;25.24;30.49
16100;BME280;8154;50.830;12.082;2023-02-17T15:52:11;99345.88;;;25.22;30.48
16100;BME280;8154;50.830;12.082;2023-02-17T15:54:41;99343.22;;;25.22;30.58
16100;BME280;8154;50.830;12.082;2023-02-17T15:57:19;99337.66;;;25.24;30.45
16100;BME280;8154;50.830;12.082;2023-02-17T15:59:48;99325.53;;;25.21;30.68
16100;BME280;8154;50.830;12.082;2023-02-17T16:02:20;99337.66;;;25.24;30.70
16100;BME280;8154;50.830;12.082;2023-02-17T16:04:48;99337.44;;;25.25;30.77
16100;BME280;8154;50.830;12.082;2023-02-17T16:07:14;99329.84;;;25.22;30.78
16100;BME280;8154;50.830;12.082;2023-02-17T16:09:41;99330.66;;;25.23;30.60
16100;BME280;8154;50.830;12.082;2023-02-17T16:12:14;99319.34;;;25.21;30.58
16100;BME280;8154;50.830;12.082;2023-02-17T16:14:43;99321.81;;;25.22;30.47
16100;BME280;8154;50.830;12.082;2023-02-17T16:17:13;99331.69;;;25.22;30.82
16100;BME280;8154;50.830;12.082;2023-02-17T16:19:40;99333.34;;;25.23;30.55
16100;BME280;8154;50.830;12.082;2023-02-17T16:22:09;99327.78;;;25.24;30.80
16100;BME280;8154;50.830;12.082;2023-02-17T16:24:36;99337.88;;;25.22;30.62
16100;BME280;8154;50.830;12.082;2023-02-17T16:27:03;99337.25;;;25.20;30.62
16100;BME280;8154;50.830;12.082;2023-02-17T16:29:30;99333.94;;;25.25;30.70
16100;BME280;8154;50.830;12.082;2023-02-17T16:31:56;99337.88;;;25.22;30.50
16100;BME280;8154;50.830;12.082;2023-02-17T16:34:23;99336.22;;;25.21;30.62
16100;BME280;8154;50.830;12.082;2023-02-17T16:36:52;99342.59;;;25.20;30.65
16100;BME280;8154;50.830;12.082;2023-02-17T16:39:21;99343.22;;;25.22;30.50
16100;BME280;8154;50.830;12.082;2023-02-17T16:41:49;99342.19;;;25.23;30.80
16100;BME280;8154;50.830;12.082;2023-02-17T16:44:19;99343.22;;;25.22;30.66
16100;BME280;8154;50.830;12.082;2023-02-17T16:46:53;99349.19;;;25.24;30.63
16100;BME280;8154;50.830;12.082;2023-02-17T16:49:32;99347.31;;;25.25;30.69
16100;BME280;8154;50.830;12.082;2023-02-17T16:52:00;99339.50;;;25.23;30.79
16100;BME280;8154;50.830;12.082;2023-02-17T16:54:28;99346.94;;;25.21;30.45
16100;BME280;8154;50.830;12.082;2023-02-17T16:56:56;99337.88;;;25.22;30.83
16100;BME280;8154;50.830;12.082;2023-02-17T16:59:24;99333.94;;;25.25;30.72
16100;BME280;8154;50.830;12.082;2023-02-17T17:01:51;99319.16;;;25.22;30.41
16100;BME280;8154;50.830;12.082;2023-02-17T17:04:20;99325.31;;;25.23;30.93
16100;BME280;8154;50.830;12.082;2023-02-17T17:06:50;99327.78;;;25.24;30.66
16100;BME280;8154;50.830;12.082;2023-02-17T17:09:22;99325.13;;;25.24;30.84
16100;BME280;8154;50.830;12.082;2023-02-17T17:11:49;99328.00;;;25.23;30.52
16100;BME280;8154;50.830;12.082;2023-02-17T17:14:16;99334.16;;;25.23;30.51
16100;BME280;8154;50.830;12.082;2023-02-17T17:16:48;99335.19;;;25.22;30.76
16100;BME280;8154;50.830;12.082;2023-02-17T17:19:16;99323.44;;;25.23;30.62
16100;BME280;8154;50.830;12.082;2023-02-17T17:21:43;99337.03;;;25.22;30.75
16100;BME280;8154;50.830;12.082;2023-02-17T17:24:09;99340.34;;;25.24;30.66
16100;BME280;8154;50.830;12.082;2023-02-17T18:27:55;99431.06;;;25.25;30.58
16100;BME280;8154;50.830;12.082;2023-02-17T18:30:23;99431.28;;;25.24;30.66
16100;BME280;8154;50.830;12.082;2023-02-17T18:32:50;99438.06;;;25.26;30.50
16100;BME280;8154;50.830;12.082;2023-02-17T18:35:16;99425.94;;;25.24;30.47
16100;BME280;8154;50.830;12.082;2023-02-17T18:37:42;99435.38;;;25.26;30.55
16100;BME280;8154;50.830;12.082;2023-02-17T18:40:13;99440.72;;;25.26;30.48
16100;BME280;8154;50.830;12.082;2023-02-17T18:42:42;99442.41;;;25.27;30.73
16100;BME280;8154;50.830;12.082;2023-02-17T18:45:13;99460.28;;;25.27;30.71
16100;BME280;8154;50.830;12.082;2023-02-17T18:47:41;99462.75;;;25.28;30.71
16100;BME280;8154;50.830;12.082;2023-02-17T18:50:10;99472.41;;;25.29;30.77
16100;BME280;8154;50.830;12.082;2023-02-17T18:52:38;99457.63;;;25.27;30.79
16100;BME280;8154;50.830;12.082;2023-02-17T18:55:04;99466.47;;;25.27;30.63
16100;BME280;8154;50.830;12.082;2023-02-17T18:57:32;99461.91;;;25.28;30.83
16100;BME280;8154;50.830;12.082;2023-02-17T18:59:58;99475.31;;;25.28;30.58
16100;BME280;8154;50.830;12.082;2023-02-17T19:02:24;99468.09;;;25.28;30.53
16100;BME280;8154;50.830;12.082;2023-02-17T19:04:52;99465.63;;;25.27;30.62
16100;BME280;8154;50.830;12.082;2023-02-17T19:07:21;99472.41;;;25.29;30.84
16100;BME280;8154;50.830;12.082;2023-02-17T19:09:48;99485.78;;;25.29;30.66
16100;BME280;8154;50.830;12.082;2023-02-17T19:12:18;99488.47;;;25.29;30.60
16100;BME280;8154;50.830;12.082;2023-02-17T19:14:45;99477.97;;;25.28;30.50
16100;BME280;8154;50.830;12.082;2023-02-17T19:17:15;99480.66;;;25.28;30.64
16100;BME280;8154;50.830;12.082;2023-02-17T19:19:46;99481.69;;;25.27;30.63
16100;BME280;8154;50.830;12.082;2023-02-17T19:22:15;99486.63;;;25.30;30.82
16100;BME280;8154;50.830;12.082;2023-02-17T19:24:49;99513.38;;;25.30;30.81
16100;BME280;8154;50.830;12.082;2023-02-17T20:28:57;99607.66;;;25.32;30.92
16100;BME280;8154;50.830;12.082;2023-02-17T20:31:25;99602.28;;;25.32;30.67
16100;BME280;8154;50.830;12.082;2023-02-17T20:33:53;99588.91;;;25.32;30.86
16100;BME280;8154;50.830;12.082;2023-02-17T20:36:21;99598.59;;;25.33;30.73
16100;BME280;8154;50.830;12.082;2023-02-17T20:38:48;99593.44;;;25.31;30.76
16100;BME280;8154;50.830;12.082;2023-02-17T20:41:17;99588.06;;;25.31;30.95
16100;BME280;8154;50.830;12.082;2023-02-17T20:43:46;99597.94;;;25.31;30.84
16100;BME280;8154;50.830;12.082;2023-02-17T20:46:20;99591.41;;;25.33;30.88
16100;BME280;8154;50.830;12.082;2023-02-17T20:48:50;99597.41;;;25.35;30.75
16100;BME280;8154;50.830;12.082;2023-02-17T20:51:18;99592.59;;;25.31;30.83
16100;BME280;8154;50.830;12.082;2023-02-17T20:53:45;99590.38;;;25.34;30.84
16100;BME280;8154;50.830;12.082;2023-02-17T20:56:18;99595.72;;;25.34;30.61
16100;BME280;8154;50.830;12.082;2023-02-17T20:58:45;99600.06;;;25.35;30.66
16100;BME280;8154;50.830;12.082;2023-02-17T21:01:12;99599.25;;;25.35;30.78
16100;BME280;8154;50.830;12.082;2023-02-17T21:03:43;99602.97;;;25.34;30.56
16100;BME280;8154;50.830;12.082;2023-02-17T21:06:19;99623.94;;;25.37;30.61
16100;BME280;8154;50.830;12.082;2023-02-17T21:08:49;99626.81;;;25.35;30.62
16100;BME280;8154;50.830;12.082;2023-02-17T21:11:17;99630.09;;;25.37;30.81
16100;BME280;8154;50.830;12.082;2023-02-17T21:13:44;99650.69;;;25.37;30.53
16100;BME280;8154;50.830;12.082;2023-02-17T21:16:14;99652.75;;;25.35;30.67
16100;BME280;8154;50.830;12.082;2023-02-17T21:18:44;99657.91;;;25.36;30.54
16100;BME280;8154;50.830;12.082;2023-02-17T21:21:12;99664.09;;;25.37;30.79
16100;BME280;8154;50.830;12.082;2023-02-17T21:23:43;99662.22;;;25.37;30.72
16100;BME280;8154;50.830;12.082;2023-02-17T21:26:11;99661.41;;;25.37;30.72
16100;BME280;8154;50.830;12.082;2023-02-17T22:27:35;99684.84;;;25.35;30.78
16100;BME280;8154;50.830;12.082;2023-02-17T22:30:03;99689.38;;;25.34;30.68
16100;BME280;8154;50.830;12.082;2023-02-17T22:32:29;99696.41;;;25.35;30.90
16100;BME280;8154;50.830;12.082;2023-02-17T22:34:55;99691.66;;;25.37;30.92
16100;BME280;8154;50.830;12.082;2023-02-17T22:37:22;99696.41;;;25.35;30.64
16100;BME280;8154;50.830;12.082;2023-02-17T22:39:53;99695.56;;;25.35;30.73
16100;BME280;8154;50.830;12.082;2023-02-17T22:42:22;99685.69;;;25.35;30.63
16100;BME280;8154;50.830;12.082;2023-02-17T22:44:49;99685.69;;;25.35;30.78
16100;BME280;8154;50.830;12.082;2023-02-17T22:47:16;99686.91;;;25.33;30.73
16100;BME280;8154;50.830;12.082;2023-02-17T22:49:43;99691.84;;;25.36;30.93
16100;BME280;8154;50.830;12.082;2023-02-17T22:52:10;99686.50;;;25.36;30.85
16100;BME280;8154;50.830;12.082;2023-02-17T22:54:36;99689.56;;;25.33;30.74
16100;BME280;8154;50.830;12.082;2023-02-17T22:57:04;99687.06;;;25.31;30.63
16100;BME280;8154;50.830;12.082;2023-02-17T22:59:30;99692.06;;;25.34;30.90
16100;BME280;8154;50.830;12.082;2023-02-17T23:01:59;99700.06;;;25.34;30.56
16100;BME280;8154;50.830;12.082;2023-02-17T23:04:26;99693.91;;;25.34;30.98
16100;BME280;8154;50.830;12.082;2023-02-17T23:06:52;99698.44;;;25.33;30.82
16100;BME280;8154;50.830;12.082;2023-02-17T23:09:18;99700.06;;;25.34;31.00
16100;BME280;8154;50.830;12.082;2023-02-17T23:11:45;99706.91;;;25.37;30.59
16100;BME280;8154;50.830;12.082;2023-02-17T23:16:54;99717.81;;;25.35;30.93
16100;BME280;8154;50.830;12.082;2023-02-17T23:19:21;99714.28;;;25.35;30.99
16100;BME280;8154;50.830;12.082;2023-02-17T23:21:53;99709.97;;;25.34;30.75
16100;BME280;8154;50.830;12.082;2023-02-17T23:24:21;99711.81;;;25.33;30.82
16100;BME280;8154;50.830;12.082;2023-02-17T23:26:48;99715.50;;;25.32;30.83
